MDT,Max TemperatureF,Mean TemperatureF,Min TemperatureF,Max Dew PointF,MeanDew PointF,Min DewpointF,Max Humidity, Mean Humidity, Min Humidity, Max Sea Level PressureIn, Mean Sea Level PressureIn, Min Sea Level PressureIn, Max VisibilityMiles, Mean VisibilityMiles, Min VisibilityMiles, Max Wind SpeedMPH, Mean Wind SpeedMPH, Max Gust SpeedMPH,PrecipitationIn, CloudCover, Events, WindDirDegrees
2013-7-1,77,66,55,58,52,46,86,61,36,30.35,30.17,30.11,10,10,4,15,7,21,0.06,4,Rain-Thunderstorm,175
2013-7-2,82,68,53,54,46,37,86,54,21,30.17,30.09,30.01,10,10,10,18,7,25,0.00,3,,89
2013-7-3,87,71,55,47,43,35,72,44,16,30.04,29.90,29.79,10,10,10,20,6,25,0.00,3,,68
2013-7-4,90,75,59,46,42,36,52,34,15,29.87,29.81,29.77,10,10,10,23,6,29,0.00,3,,271
2013-7-5,89,76,62,54,48,44,57,40,22,30.00,29.78,29.69,10,10,10,29,7,36,0.01,5,Rain-Thunderstorm,258
2013-7-6,88,76,64,50,47,41,56,39,21,30.06,29.82,29.70,10,10,10,18,9,23,T,4,Thunderstorm,227
2013-7-7,85,73,61,55,49,44,64,45,26,30.14,29.92,29.83,10,10,10,28,7,38,T,5,Rain-Thunderstorm,247
2013-7-8,93,79,64,51,45,38,67,42,16,30.16,29.92,29.86,10,10,10,26,12,33,0.00,3,,274
2013-7-9,92,77,61,46,40,31,48,30,12,30.25,30.01,29.96,10,10,10,31,6,38,0.00,4,,212
2013-7-10,89,74,59,54,49,44,67,46,24,30.24,30.01,29.91,10,10,8,29,8,39,0.01,4,Rain-Thunderstorm,183
2013-7-11,97,79,61,57,51,40,72,43,14,30.09,29.87,29.75,10,10,10,29,14,37,0.02,4,Rain-Thunderstorm,181
2013-7-12,91,77,63,59,52,46,66,45,23,30.14,29.90,29.77,10,10,8,22,7,29,0.01,5,Rain-Thunderstorm,317
2013-7-13,92,77,62,62,55,48,93,59,24,30.22,29.99,29.87,10,10,10,37,6,48,0.11,6,Fog-Rain-Thunderstorm,168
2013-7-14,80,69,58,64,58,54,97,70,43,30.32,30.09,29.98,10,10,10,30,8,36,0.19,5,Fog-Rain-Thunderstorm,308
2013-7-15,75,68,60,63,57,44,93,70,46,30.27,30.11,30.00,10,10,6,23,5,28,0.02,6,Rain-Thunderstorm,167
2013-7-16,80,68,55,55,48,44,78,54,30,30.13,30.07,30.03,10,10,10,24,14,31,0.00,1,,164
2013-7-17,86,72,58,54,49,43,80,52,24,30.12,30.06,29.99,10,10,10,24,15,30,0.00,2,,170
2013-7-18,92,77,61,54,49,45,65,43,21,30.03,29.97,29.91,10,10,10,31,11,37,0.00,3,,319
2013-7-19,83,73,62,56,53,49,73,54,35,30.07,30.02,29.96,10,10,10,17,7,24,0.00,4,,360
2013-7-20,92,75,58,57,51,37,84,50,16,29.96,29.88,29.76,10,10,10,25,8,33,0.00,3,,121
2013-7-21,90,77,63,55,47,37,67,43,18,29.87,29.78,29.74,10,10,10,22,10,28,0.00,2,,183
2013-7-22,95,81,66,44,38,26,35,22,9,29.84,29.79,29.75,10,10,10,17,8,23,0.00,3,,237
2013-7-23,90,78,66,56,39,19,57,33,8,29.99,29.87,29.78,10,10,10,15,7,20,0.00,3,,355
2013-7-24,81,70,59,59,54,43,73,51,29,30.26,30.00,29.95,10,10,10,30,11,37,T,6,Rain-Thunderstorm,191
2013-7-25,82,69,55,55,52,47,86,60,33,30.31,30.10,29.96,10,10,7,33,8,41,0.04,5,Rain-Thunderstorm,270
2013-7-26,87,71,54,51,46,35,83,51,18,30.20,30.12,30.03,10,10,10,20,4,24,0.00,4,,151
2013-7-27,80,70,60,59,52,45,90,63,35,30.18,29.99,29.89,10,10,5,18,10,22,0.06,5,Rain-Thunderstorm,38
2013-7-28,70,65,60,59,57,56,90,78,66,30.08,29.93,29.83,10,8,3,15,8,21,0.06,7,Rain,318
2013-7-29,72,65,58,60,56,52,90,74,57,30.11,30.00,29.86,10,7,0,16,7,23,0.01,5,Fog-Rain,327
2013-7-30,86,69,52,53,47,40,78,50,21,30.29,30.11,30.04,10,10,10,31,6,40,T,4,Rain-Thunderstorm,251
2013-7-31,89,75,60,55,47,37,73,46,18,30.22,30.11,30.00,10,10,10,17,5,24,T,4,,338